PHENX88 YMES-YPED
Flight info
| Callsign | PHENX88 |
|---|---|
| Flight time | 1h 25m |
| Altitude | 40000 |
| Route | DUNNE DCT BADGR N759 ML H345 AD |
| Aircraft | E737/M-SDE2E3FGHIRWXY/LB1 |
Departure
| Time | 2026-04-12 06:31 |
|---|---|
| Airport | RAAF Base East Sale (YMES) |
Arrival
| Time | 2026-04-12 07:56 |
|---|---|
| Airport | RAAF Base Edinburgh (YPED) |
| Time | Latitude | Longitude | Altitude | Speed | Heading |
|---|---|---|---|---|---|
| 2026-04-12 06:15 | -38.09829 | 147.12859 | 35 ft | 0 kts | 99° |
| 2026-04-12 06:24 | -38.09829 | 147.12863 | 35 ft | 0 kts | 99° |
| 2026-04-12 06:25 | -38.09830 | 147.12863 | 35 ft | 1 kts | 99° |
| 2026-04-12 06:25 | -38.09805 | 147.12900 | 34 ft | 9 kts | 7° |
| 2026-04-12 06:25 | -38.09775 | 147.12843 | 34 ft | 8 kts | 285° |
| 2026-04-12 06:26 | -38.09713 | 147.12830 | 34 ft | 13 kts | 46° |
| 2026-04-12 06:26 | -38.09710 | 147.12927 | 34 ft | 10 kts | 98° |
| 2026-04-12 06:26 | -38.09721 | 147.13028 | 34 ft | 12 kts | 98° |
| 2026-04-12 06:26 | -38.09734 | 147.13148 | 33 ft | 14 kts | 98° |
| 2026-04-12 06:27 | -38.09749 | 147.13275 | 32 ft | 17 kts | 99° |
| 2026-04-12 06:27 | -38.09766 | 147.13411 | 32 ft | 15 kts | 99° |
| 2026-04-12 06:27 | -38.09782 | 147.13533 | 31 ft | 12 kts | 99° |
| 2026-04-12 06:27 | -38.09799 | 147.13657 | 30 ft | 14 kts | 99° |
| 2026-04-12 06:28 | -38.09819 | 147.13805 | 30 ft | 19 kts | 100° |
| 2026-04-12 06:28 | -38.09839 | 147.13962 | 29 ft | 13 kts | 96° |
| 2026-04-12 06:28 | -38.09851 | 147.14088 | 29 ft | 15 kts | 97° |
| 2026-04-12 06:28 | -38.09864 | 147.14206 | 29 ft | 13 kts | 99° |
| 2026-04-12 06:29 | -38.09882 | 147.14342 | 28 ft | 15 kts | 99° |
| 2026-04-12 06:29 | -38.09900 | 147.14475 | 27 ft | 15 kts | 100° |
| 2026-04-12 06:29 | -38.09912 | 147.14566 | 26 ft | 14 kts | 99° |
| 2026-04-12 06:29 | -38.09934 | 147.14740 | 25 ft | 17 kts | 99° |
| 2026-04-12 06:30 | -38.09951 | 147.14874 | 25 ft | 13 kts | 98° |
| 2026-04-12 06:30 | -38.09967 | 147.15016 | 25 ft | 18 kts | 98° |
| 2026-04-12 06:30 | -38.09985 | 147.15161 | 26 ft | 12 kts | 98° |
| 2026-04-12 06:30 | -38.09967 | 147.15288 | 26 ft | 17 kts | 51° |
| 2026-04-12 06:31 | -38.09877 | 147.15308 | 26 ft | 14 kts | 314° |
| 2026-04-12 06:31 | -38.09845 | 147.15117 | 26 ft | 48 kts | 279° |
| 2026-04-12 06:31 | -38.09745 | 147.14278 | 35 ft | 141 kts | 279° |
| 2026-04-12 06:31 | -38.09595 | 147.12991 | 961 ft | 154 kts | 276° |
| 2026-04-12 06:32 | -38.09442 | 147.11760 | 2271 ft | 146 kts | 276° |
| 2026-04-12 06:32 | -38.09218 | 147.10516 | 3189 ft | 156 kts | 279° |
| 2026-04-12 06:32 | -38.09028 | 147.09618 | 3787 ft | 164 kts | 279° |
| 2026-04-12 06:32 | -38.08754 | 147.08174 | 4659 ft | 179 kts | 277° |
| 2026-04-12 06:33 | -38.08373 | 147.06058 | 5871 ft | 197 kts | 277° |
| 2026-04-12 06:33 | -38.08058 | 147.04317 | 6725 ft | 214 kts | 277° |
| 2026-04-12 06:33 | -38.07717 | 147.02429 | 7673 ft | 228 kts | 277° |
| 2026-04-12 06:33 | -38.07355 | 147.00429 | 8569 ft | 245 kts | 276° |
| 2026-04-12 06:34 | -38.06969 | 146.98282 | 9517 ft | 259 kts | 276° |
| 2026-04-12 06:34 | -38.06565 | 146.96054 | 10530 ft | 269 kts | 276° |
| 2026-04-12 06:34 | -38.06142 | 146.93698 | 11338 ft | 285 kts | 276° |
| 2026-04-12 06:34 | -38.05692 | 146.91197 | 12129 ft | 302 kts | 276° |
| 2026-04-12 06:35 | -38.04717 | 146.85820 | 13942 ft | 323 kts | 276° |
| 2026-04-12 06:35 | -38.04211 | 146.83054 | 15053 ft | 325 kts | 276° |
| 2026-04-12 06:35 | -38.03702 | 146.80252 | 16036 ft | 331 kts | 276° |
| 2026-04-12 06:36 | -38.03194 | 146.77434 | 16927 ft | 337 kts | 275° |
| 2026-04-12 06:36 | -38.02674 | 146.74536 | 17889 ft | 341 kts | 276° |
| 2026-04-12 06:36 | -38.02148 | 146.71597 | 18789 ft | 346 kts | 275° |
| 2026-04-12 06:36 | -38.01615 | 146.68623 | 19676 ft | 351 kts | 275° |
| 2026-04-12 06:37 | -38.01259 | 146.66637 | 20308 ft | 352 kts | 275° |
| 2026-04-12 06:37 | -38.00532 | 146.62566 | 21384 ft | 359 kts | 275° |
| 2026-04-12 06:37 | -37.99986 | 146.59503 | 22206 ft | 363 kts | 274° |
| 2026-04-12 06:37 | -37.99425 | 146.56363 | 23026 ft | 366 kts | 274° |
| 2026-04-12 06:38 | -37.98867 | 146.53236 | 23802 ft | 369 kts | 274° |
| 2026-04-12 06:38 | -37.98301 | 146.50049 | 24462 ft | 375 kts | 274° |
| 2026-04-12 06:38 | -37.97735 | 146.46855 | 25198 ft | 378 kts | 274° |
| 2026-04-12 06:38 | -37.97158 | 146.43596 | 25901 ft | 382 kts | 274° |
| 2026-04-12 06:39 | -37.96774 | 146.41425 | 26403 ft | 383 kts | 274° |
| 2026-04-12 06:39 | -37.96189 | 146.38123 | 27107 ft | 385 kts | 273° |
| 2026-04-12 06:39 | -37.95606 | 146.34814 | 27695 ft | 390 kts | 274° |
| 2026-04-12 06:39 | -37.94820 | 146.30348 | 28595 ft | 393 kts | 274° |
| 2026-04-12 06:40 | -37.94224 | 146.26959 | 29215 ft | 396 kts | 274° |
| 2026-04-12 06:40 | -37.93624 | 146.23540 | 29860 ft | 399 kts | 273° |
| 2026-04-12 06:40 | -37.93231 | 146.21287 | 30146 ft | 403 kts | 273° |
| 2026-04-12 06:40 | -37.92424 | 146.16666 | 30925 ft | 407 kts | 274° |
| 2026-04-12 06:41 | -37.92010 | 146.14333 | 31311 ft | 409 kts | 274° |
| 2026-04-12 06:41 | -37.90988 | 146.09662 | 32009 ft | 420 kts | 278° |
| 2026-04-12 06:41 | -37.90020 | 146.06154 | 32528 ft | 426 kts | 281° |
| 2026-04-12 06:41 | -37.88959 | 146.02626 | 33235 ft | 425 kts | 282° |
| 2026-04-12 06:42 | -37.88256 | 146.00363 | 33833 ft | 420 kts | 282° |
| 2026-04-12 06:42 | -37.86830 | 145.95811 | 34632 ft | 417 kts | 282° |
| 2026-04-12 06:42 | -37.85767 | 145.92384 | 35028 ft | 419 kts | 282° |
| 2026-04-12 06:42 | -37.84722 | 145.88986 | 35493 ft | 419 kts | 282° |
| 2026-04-12 06:43 | -37.83674 | 145.85570 | 36070 ft | 418 kts | 282° |
| 2026-04-12 06:43 | -37.82976 | 145.83289 | 36464 ft | 417 kts | 282° |
| 2026-04-12 06:43 | -37.81599 | 145.78767 | 37118 ft | 419 kts | 282° |
| 2026-04-12 06:43 | -37.80554 | 145.75336 | 37696 ft | 416 kts | 282° |
| 2026-04-12 06:44 | -37.79517 | 145.71928 | 38165 ft | 416 kts | 282° |
| 2026-04-12 06:44 | -37.78492 | 145.68559 | 38610 ft | 416 kts | 282° |
| 2026-04-12 06:44 | -37.77444 | 145.65112 | 38984 ft | 417 kts | 282° |
| 2026-04-12 06:44 | -37.76409 | 145.61716 | 39404 ft | 416 kts | 282° |
| 2026-04-12 06:45 | -37.75376 | 145.58327 | 39771 ft | 416 kts | 282° |
| 2026-04-12 06:45 | -37.74689 | 145.56076 | 39948 ft | 417 kts | 282° |
| 2026-04-12 06:45 | -37.73296 | 145.51485 | 39979 ft | 417 kts | 281° |
| 2026-04-12 06:46 | -37.71737 | 145.44592 | 39982 ft | 405 kts | 273° |
| 2026-04-12 06:46 | -37.70918 | 145.37620 | 39985 ft | 401 kts | 269° |
| 2026-04-12 06:47 | -37.70401 | 145.31790 | 39985 ft | 403 kts | 269° |
| 2026-04-12 06:47 | -37.69793 | 145.24812 | 39985 ft | 401 kts | 269° |
| 2026-04-12 06:48 | -37.69164 | 145.17802 | 39992 ft | 403 kts | 269° |
| 2026-04-12 06:48 | -37.68411 | 145.09647 | 39994 ft | 401 kts | 269° |
| 2026-04-12 06:49 | -37.67866 | 145.03822 | 39996 ft | 401 kts | 270° |
| 2026-04-12 06:49 | -37.67099 | 144.95691 | 39999 ft | 401 kts | 270° |
| 2026-04-12 06:50 | -37.66427 | 144.88715 | 40003 ft | 401 kts | 270° |
| 2026-04-12 06:50 | -37.65336 | 144.81802 | 40003 ft | 409 kts | 278° |
| 2026-04-12 06:51 | -37.63494 | 144.74970 | 40010 ft | 414 kts | 282° |
| 2026-04-12 06:51 | -37.61481 | 144.68198 | 40011 ft | 414 kts | 282° |
| 2026-04-12 06:52 | -37.59468 | 144.61410 | 40012 ft | 412 kts | 282° |
| 2026-04-12 06:52 | -37.57806 | 144.55743 | 40007 ft | 413 kts | 281° |
| 2026-04-12 06:53 | -37.55831 | 144.48978 | 40010 ft | 412 kts | 281° |
| 2026-04-12 06:53 | -37.53869 | 144.42246 | 40013 ft | 412 kts | 282° |
| 2026-04-12 06:54 | -37.51573 | 144.34375 | 40008 ft | 411 kts | 282° |
| 2026-04-12 06:54 | -37.49592 | 144.27600 | 40005 ft | 411 kts | 282° |
| 2026-04-12 06:55 | -37.47628 | 144.20898 | 40005 ft | 411 kts | 282° |
| 2026-04-12 06:55 | -37.45645 | 144.14151 | 40006 ft | 411 kts | 282° |
| 2026-04-12 06:56 | -37.43995 | 144.08548 | 40006 ft | 410 kts | 282° |
| 2026-04-12 06:56 | -37.41680 | 144.00703 | 40006 ft | 411 kts | 282° |
| 2026-04-12 06:57 | -37.39706 | 143.94032 | 40010 ft | 410 kts | 282° |
| 2026-04-12 06:57 | -37.37712 | 143.87318 | 40019 ft | 411 kts | 282° |
| 2026-04-12 06:58 | -37.35720 | 143.80623 | 40022 ft | 410 kts | 282° |
| 2026-04-12 06:58 | -37.34066 | 143.75073 | 40025 ft | 410 kts | 282° |
| 2026-04-12 06:59 | -37.31733 | 143.67262 | 40027 ft | 410 kts | 282° |
| 2026-04-12 06:59 | -37.29731 | 143.60580 | 40029 ft | 411 kts | 282° |
| 2026-04-12 07:00 | -37.27046 | 143.51646 | 40036 ft | 410 kts | 282° |
| 2026-04-12 07:00 | -37.24692 | 143.43839 | 40041 ft | 411 kts | 283° |
| 2026-04-12 07:01 | -37.22669 | 143.37140 | 40041 ft | 411 kts | 282° |
| 2026-04-12 07:01 | -37.20640 | 143.30440 | 40039 ft | 412 kts | 283° |
| 2026-04-12 07:02 | -37.18616 | 143.23776 | 40045 ft | 411 kts | 283° |
| 2026-04-12 07:02 | -37.16913 | 143.18182 | 40049 ft | 411 kts | 283° |
| 2026-04-12 07:03 | -37.14880 | 143.11525 | 40053 ft | 411 kts | 283° |
| 2026-04-12 07:03 | -37.12508 | 143.03775 | 40062 ft | 411 kts | 283° |
| 2026-04-12 07:04 | -37.10455 | 142.97086 | 40063 ft | 410 kts | 283° |
| 2026-04-12 07:04 | -37.08754 | 142.91553 | 40069 ft | 410 kts | 283° |
| 2026-04-12 07:05 | -37.06699 | 142.84882 | 40070 ft | 411 kts | 283° |
| 2026-04-12 07:05 | -37.04312 | 142.77156 | 40080 ft | 410 kts | 283° |
| 2026-04-12 07:06 | -37.02591 | 142.71600 | 40082 ft | 409 kts | 283° |
| 2026-04-12 07:06 | -37.00190 | 142.63866 | 40073 ft | 410 kts | 283° |
| 2026-04-12 07:07 | -36.98128 | 142.57242 | 40086 ft | 409 kts | 283° |
| 2026-04-12 07:07 | -36.96068 | 142.50633 | 40073 ft | 409 kts | 283° |
| 2026-04-12 07:08 | -36.94008 | 142.44040 | 40079 ft | 409 kts | 283° |
| 2026-04-12 07:08 | -36.92285 | 142.38542 | 40077 ft | 408 kts | 283° |
| 2026-04-12 07:09 | -36.90222 | 142.31970 | 40080 ft | 409 kts | 284° |
| 2026-04-12 07:09 | -36.88141 | 142.25352 | 40078 ft | 410 kts | 284° |
| 2026-04-12 07:10 | -36.85713 | 142.17660 | 40086 ft | 407 kts | 284° |
| 2026-04-12 07:10 | -36.83640 | 142.11105 | 40081 ft | 408 kts | 284° |
| 2026-04-12 07:11 | -36.81903 | 142.05623 | 40084 ft | 408 kts | 284° |
| 2026-04-12 07:11 | -36.79818 | 141.99054 | 40091 ft | 407 kts | 284° |
| 2026-04-12 07:12 | -36.77736 | 141.92514 | 40088 ft | 407 kts | 284° |
| 2026-04-12 07:12 | -36.75295 | 141.84866 | 40097 ft | 407 kts | 284° |
| 2026-04-12 07:13 | -36.73212 | 141.78351 | 40093 ft | 408 kts | 284° |
| 2026-04-12 07:13 | -36.71105 | 141.71774 | 40094 ft | 410 kts | 284° |
| 2026-04-12 07:14 | -36.69353 | 141.66321 | 40097 ft | 407 kts | 284° |
| 2026-04-12 07:14 | -36.67249 | 141.59790 | 40098 ft | 407 kts | 284° |
| 2026-04-12 07:15 | -36.65149 | 141.53275 | 40103 ft | 408 kts | 284° |
| 2026-04-12 07:15 | -36.62694 | 141.45688 | 40105 ft | 406 kts | 284° |
| 2026-04-12 07:16 | -36.60922 | 141.40216 | 40104 ft | 408 kts | 284° |
| 2026-04-12 07:16 | -36.58452 | 141.32608 | 40108 ft | 408 kts | 284° |
| 2026-04-12 07:17 | -36.56338 | 141.26123 | 40114 ft | 406 kts | 285° |
| 2026-04-12 07:17 | -36.54207 | 141.19594 | 40114 ft | 407 kts | 285° |
| 2026-04-12 07:18 | -36.52445 | 141.14206 | 40117 ft | 406 kts | 285° |
| 2026-04-12 07:18 | -36.50333 | 141.07764 | 40118 ft | 404 kts | 285° |
| 2026-04-12 07:19 | -36.48204 | 141.01277 | 40120 ft | 407 kts | 285° |
| 2026-04-12 07:19 | -36.45710 | 140.93698 | 40120 ft | 405 kts | 285° |
| 2026-04-12 07:20 | -36.43946 | 140.88356 | 40119 ft | 406 kts | 285° |
| 2026-04-12 07:20 | -36.41443 | 140.80788 | 40125 ft | 406 kts | 285° |
| 2026-04-12 07:21 | -36.39523 | 140.75436 | 40126 ft | 411 kts | 289° |
| 2026-04-12 07:21 | -36.36408 | 140.69420 | 40130 ft | 420 kts | 298° |
| 2026-04-12 07:22 | -36.32179 | 140.62738 | 40134 ft | 423 kts | 300° |
| 2026-04-12 07:22 | -36.29109 | 140.58011 | 40130 ft | 423 kts | 300° |
| 2026-04-12 07:23 | -36.25456 | 140.52351 | 40130 ft | 421 kts | 300° |
| 2026-04-12 07:23 | -36.21216 | 140.45731 | 40138 ft | 421 kts | 300° |
| 2026-04-12 07:24 | -36.17608 | 140.40079 | 40138 ft | 422 kts | 300° |
| 2026-04-12 07:24 | -36.14568 | 140.35316 | 40143 ft | 422 kts | 300° |
| 2026-04-12 07:25 | -36.10341 | 140.28700 | 40141 ft | 421 kts | 300° |
| 2026-04-12 07:25 | -36.07318 | 140.23978 | 40141 ft | 422 kts | 300° |
| 2026-04-12 07:26 | -36.03682 | 140.18303 | 40143 ft | 422 kts | 300° |
| 2026-04-12 07:26 | -36.00039 | 140.12633 | 40147 ft | 423 kts | 300° |
| 2026-04-12 07:27 | -35.95804 | 140.06049 | 40147 ft | 423 kts | 300° |
| 2026-04-12 07:27 | -35.92128 | 140.00348 | 40149 ft | 422 kts | 300° |
| 2026-04-12 07:28 | -35.88479 | 139.94698 | 40153 ft | 421 kts | 300° |
| 2026-04-12 07:28 | -35.84844 | 139.89073 | 40158 ft | 420 kts | 300° |
| 2026-04-12 07:29 | -35.81799 | 139.84367 | 40158 ft | 422 kts | 300° |
| 2026-04-12 07:29 | -35.78162 | 139.78757 | 40159 ft | 422 kts | 300° |
| 2026-04-12 07:30 | -35.73892 | 139.72188 | 40161 ft | 422 kts | 300° |
| 2026-04-12 07:30 | -35.70843 | 139.67509 | 39725 ft | 419 kts | 300° |
| 2026-04-12 07:31 | -35.69020 | 139.64708 | 38647 ft | 426 kts | 300° |
| 2026-04-12 07:31 | -35.66577 | 139.60956 | 37846 ft | 421 kts | 301° |
| 2026-04-12 07:31 | -35.65371 | 139.59111 | 37524 ft | 417 kts | 301° |
| 2026-04-12 07:31 | -35.63570 | 139.56361 | 36947 ft | 414 kts | 301° |
| 2026-04-12 07:32 | -35.61167 | 139.52690 | 36132 ft | 412 kts | 302° |
| 2026-04-12 07:32 | -35.59382 | 139.49959 | 35476 ft | 412 kts | 302° |
| 2026-04-12 07:32 | -35.58199 | 139.48148 | 35022 ft | 412 kts | 302° |
| 2026-04-12 07:32 | -35.56404 | 139.45404 | 34312 ft | 412 kts | 303° |
| 2026-04-12 07:33 | -35.54021 | 139.41765 | 33351 ft | 413 kts | 303° |
| 2026-04-12 07:33 | -35.52823 | 139.39938 | 32861 ft | 413 kts | 303° |
| 2026-04-12 07:33 | -35.51027 | 139.37203 | 32116 ft | 413 kts | 303° |
| 2026-04-12 07:33 | -35.48626 | 139.33548 | 31090 ft | 413 kts | 303° |
| 2026-04-12 07:34 | -35.46824 | 139.30808 | 30295 ft | 414 kts | 303° |
| 2026-04-12 07:34 | -35.45031 | 139.28084 | 29587 ft | 417 kts | 303° |
| 2026-04-12 07:34 | -35.43185 | 139.25270 | 28984 ft | 434 kts | 303° |
| 2026-04-12 07:34 | -35.41288 | 139.22385 | 28304 ft | 434 kts | 303° |
| 2026-04-12 07:35 | -35.39412 | 139.19547 | 27602 ft | 428 kts | 303° |
| 2026-04-12 07:35 | -35.38168 | 139.17673 | 27163 ft | 423 kts | 303° |
| 2026-04-12 07:35 | -35.35733 | 139.14006 | 26316 ft | 414 kts | 303° |
| 2026-04-12 07:35 | -35.33924 | 139.11282 | 25689 ft | 408 kts | 303° |
| 2026-04-12 07:36 | -35.32149 | 139.08601 | 25072 ft | 413 kts | 303° |
| 2026-04-12 07:36 | -35.30342 | 139.05870 | 24432 ft | 410 kts | 303° |
| 2026-04-12 07:36 | -35.28562 | 139.03188 | 23812 ft | 403 kts | 303° |
| 2026-04-12 07:36 | -35.26817 | 139.00563 | 23200 ft | 397 kts | 303° |
| 2026-04-12 07:37 | -35.25100 | 138.97981 | 22594 ft | 391 kts | 303° |
| 2026-04-12 07:37 | -35.23968 | 138.96280 | 22191 ft | 387 kts | 303° |
| 2026-04-12 07:37 | -35.22272 | 138.93726 | 21588 ft | 390 kts | 303° |
| 2026-04-12 07:37 | -35.19997 | 138.90299 | 20766 ft | 388 kts | 303° |
| 2026-04-12 07:38 | -35.18306 | 138.87758 | 20163 ft | 382 kts | 303° |
| 2026-04-12 07:38 | -35.16646 | 138.85272 | 19558 ft | 376 kts | 303° |
| 2026-04-12 07:38 | -35.15564 | 138.83653 | 19161 ft | 372 kts | 303° |
| 2026-04-12 07:38 | -35.13948 | 138.81232 | 18579 ft | 365 kts | 303° |
| 2026-04-12 07:39 | -35.12341 | 138.78821 | 18006 ft | 367 kts | 302° |
| 2026-04-12 07:39 | -35.10735 | 138.76404 | 17419 ft | 369 kts | 303° |
| 2026-04-12 07:39 | -35.09146 | 138.74023 | 16840 ft | 362 kts | 303° |
| 2026-04-12 07:39 | -35.07570 | 138.71669 | 16259 ft | 356 kts | 303° |
| 2026-04-12 07:40 | -35.06005 | 138.69334 | 15660 ft | 353 kts | 303° |
| 2026-04-12 07:40 | -35.04441 | 138.66992 | 15095 ft | 358 kts | 303° |
| 2026-04-12 07:40 | -35.02353 | 138.63875 | 14321 ft | 354 kts | 303° |
| 2026-04-12 07:40 | -35.00812 | 138.61585 | 13745 ft | 348 kts | 303° |
| 2026-04-12 07:41 | -34.99287 | 138.59320 | 13185 ft | 345 kts | 303° |
| 2026-04-12 07:41 | -34.98283 | 138.57825 | 12801 ft | 348 kts | 303° |
| 2026-04-12 07:41 | -34.96737 | 138.55528 | 12219 ft | 348 kts | 304° |
| 2026-04-12 07:41 | -34.94447 | 138.52799 | 11442 ft | 349 kts | 320° |
| 2026-04-12 07:42 | -34.92205 | 138.51570 | 10922 ft | 351 kts | 340° |
| 2026-04-12 07:42 | -34.89836 | 138.50925 | 10702 ft | 337 kts | 344° |
| 2026-04-12 07:42 | -34.88347 | 138.50584 | 10639 ft | 326 kts | 345° |
| 2026-04-12 07:43 | -34.81453 | 138.48940 | 10039 ft | 286 kts | 342° |
| 2026-04-12 07:43 | -34.80160 | 138.48599 | 9777 ft | 286 kts | 342° |
| 2026-04-12 07:43 | -34.77583 | 138.47911 | 9303 ft | 283 kts | 342° |
| 2026-04-12 07:44 | -34.75633 | 138.47388 | 8953 ft | 288 kts | 343° |
| 2026-04-12 07:44 | -34.73658 | 138.47055 | 8532 ft | 291 kts | 354° |
| 2026-04-12 07:44 | -34.71612 | 138.47235 | 8048 ft | 295 kts | 6° |
| 2026-04-12 07:44 | -34.70264 | 138.47513 | 7786 ft | 294 kts | 8° |
| 2026-04-12 07:45 | -34.68259 | 138.47981 | 7434 ft | 290 kts | 8° |
| 2026-04-12 07:45 | -34.65657 | 138.48557 | 6965 ft | 285 kts | 8° |
| 2026-04-12 07:45 | -34.63697 | 138.48950 | 6619 ft | 282 kts | 7° |
| 2026-04-12 07:45 | -34.61760 | 138.49319 | 6273 ft | 279 kts | 7° |
| 2026-04-12 07:46 | -34.60483 | 138.49556 | 6044 ft | 277 kts | 7° |
| 2026-04-12 07:46 | -34.57980 | 138.50020 | 5590 ft | 273 kts | 7° |
| 2026-04-12 07:46 | -34.56110 | 138.50365 | 5255 ft | 270 kts | 7° |
| 2026-04-12 07:46 | -34.54865 | 138.50619 | 5047 ft | 268 kts | 10° |
| 2026-04-12 07:47 | -34.52502 | 138.51543 | 4986 ft | 274 kts | 21° |
| 2026-04-12 07:47 | -34.50740 | 138.52466 | 4982 ft | 273 kts | 24° |
| 2026-04-12 07:47 | -34.49586 | 138.53093 | 4983 ft | 274 kts | 24° |
| 2026-04-12 07:47 | -34.47240 | 138.54347 | 4980 ft | 275 kts | 23° |
| 2026-04-12 07:48 | -34.45591 | 138.55396 | 4866 ft | 266 kts | 34° |
| 2026-04-12 07:48 | -34.44664 | 138.56367 | 4698 ft | 267 kts | 51° |
| 2026-04-12 07:48 | -34.43847 | 138.59145 | 4299 ft | 258 kts | 94° |
| 2026-04-12 07:48 | -34.44075 | 138.61215 | 4211 ft | 243 kts | 103° |
| 2026-04-12 07:49 | -34.44302 | 138.62506 | 4172 ft | 232 kts | 109° |
| 2026-04-12 07:49 | -34.45276 | 138.64603 | 4094 ft | 201 kts | 144° |
| 2026-04-12 07:49 | -34.46439 | 138.65338 | 4035 ft | 182 kts | 165° |
| 2026-04-12 07:49 | -34.47629 | 138.65662 | 3967 ft | 163 kts | 178° |
| 2026-04-12 07:50 | -34.48687 | 138.65559 | 3843 ft | 147 kts | 193° |
| 2026-04-12 07:50 | -34.49688 | 138.65332 | 3687 ft | 142 kts | 191° |
| 2026-04-12 07:50 | -34.50604 | 138.65161 | 3550 ft | 124 kts | 191° |
| 2026-04-12 07:50 | -34.51417 | 138.65012 | 3406 ft | 112 kts | 191° |
| 2026-04-12 07:51 | -34.52186 | 138.64877 | 3303 ft | 111 kts | 190° |
| 2026-04-12 07:51 | -34.52704 | 138.64796 | 3242 ft | 113 kts | 190° |
| 2026-04-12 07:51 | -34.53467 | 138.64661 | 3156 ft | 110 kts | 191° |
| 2026-04-12 07:51 | -34.54236 | 138.64516 | 3176 ft | 112 kts | 192° |
| 2026-04-12 07:52 | -34.55019 | 138.64365 | 2997 ft | 115 kts | 192° |
| 2026-04-12 07:52 | -34.55821 | 138.64197 | 2759 ft | 120 kts | 193° |
| 2026-04-12 07:52 | -34.56939 | 138.63908 | 2653 ft | 126 kts | 193° |
| 2026-04-12 07:52 | -34.57516 | 138.63780 | 2604 ft | 128 kts | 191° |
| 2026-04-12 07:53 | -34.58403 | 138.63609 | 2387 ft | 130 kts | 191° |
| 2026-04-12 07:53 | -34.59533 | 138.63400 | 2322 ft | 122 kts | 190° |
| 2026-04-12 07:53 | -34.60107 | 138.63312 | 2442 ft | 124 kts | 189° |
| 2026-04-12 07:53 | -34.61310 | 138.63147 | 2461 ft | 140 kts | 188° |
| 2026-04-12 07:54 | -34.61953 | 138.63058 | 2227 ft | 139 kts | 188° |
| 2026-04-12 07:54 | -34.63217 | 138.62930 | 1720 ft | 134 kts | 187° |
| 2026-04-12 07:54 | -34.63824 | 138.62846 | 1478 ft | 132 kts | 189° |
| 2026-04-12 07:54 | -34.64722 | 138.62668 | 1098 ft | 130 kts | 192° |
| 2026-04-12 07:55 | -34.65886 | 138.62439 | 774 ft | 124 kts | 190° |
| 2026-04-12 07:55 | -34.66450 | 138.62329 | 815 ft | 126 kts | 191° |
| 2026-04-12 07:55 | -34.67631 | 138.62093 | 540 ft | 128 kts | 191° |
| 2026-04-12 07:55 | -34.68495 | 138.61922 | 327 ft | 128 kts | 189° |
| 2026-04-12 07:56 | -34.69378 | 138.61771 | 124 ft | 126 kts | 190° |
| 2026-04-12 07:56 | -34.70213 | 138.61614 | 74 ft | 102 kts | 186° |
| 2026-04-12 07:56 | -34.70583 | 138.61546 | 71 ft | 75 kts | 187° |
| 2026-04-12 07:56 | -34.70962 | 138.61481 | 70 ft | 33 kts | 189° |
| 2026-04-12 07:57 | -34.71161 | 138.61549 | 69 ft | 19 kts | 128° |
| 2026-04-12 07:57 | -34.71225 | 138.61661 | 69 ft | 12 kts | 97° |
| 2026-04-12 07:57 | -34.71176 | 138.61752 | 69 ft | 11 kts | 78° |
| 2026-04-12 07:57 | -34.71227 | 138.61769 | 70 ft | 2 kts | 219° |